English Village, Alabama
Current Conditions -  °F | °C
As of 11:53 PM on Monday 26 Jan 2015 (Local Time) from KBHM Reporting Station
Overcast Overcast  
Wind Chill: 37°   Ceiling: 6000
Heat Index: 42°   Visibility: 10mi
Dew Point: 31°   Wind: 8mph
Humidity: 65%   Direction: 280°W
Pressure: 30"   Gusts: NA
Location:  33.4888°N, 86.7354°W
Report Text: KBHM 270553Z 28007KT 10SM OVC060 06/M01 A3000 RMK AO2 SLP159 T00561006 10061 20039 400830033 58001
Loading
Personal Weather Stations






























Interactive Weather Map New forecast layout! Learn more

10-Day Weather Forecast

Advertisements
Track Severe Weather on mobile